Filia Joy — 3FIN9 — position and weather

sailwx.info

Track history (hours):
 
Tides and Currents Weather Stations Pressure Air Temp Water Temp Dewpoint Dewpoint Depression Visibility Wind Speed Wind Dir Waves Ship Positions

Filia Joy

Last reported at 2016-Apr-29 06:32 UTC. Time now 2016-Apr-29 23:34 UTC.
Position N 39°09' W 009°51'.

Length 190 m; draft 6.4 m.

Type: Cargo ship. MMSI: 371999000.

Date/timePositionNaut miles runAvg speedWind from/ knotsBaromVisibWave heightAir tempDewpointWater temp
2016-Apr-29 06:32N 39°09' W 009°51'1313.0
2016-Apr-29 05:33N 38°57' W 009°51'1413.1
2016-Apr-29 04:31N 38°43' W 009°51'1313.0
2016-Apr-29 03:33N 38°31' W 009°48'1313.1
2016-Apr-29 02:33N 38°18' W 009°45'1313.0
2016-Apr-29 01:33N 38°05' W 009°41'1312.9
2016-Apr-29 00:33N 37°53' W 009°37'1312.7
2016-Apr-28 23:33N 37°40' W 009°33'21911.5
2016-Apr-28 04:33N 35°59' W 005°30'1010.4
2016-Apr-28 03:33N 36°01' W 005°17'19612.8
2016-Apr-27 12:13N 36°32' W 001°18'1113.2
2016-Apr-27 11:24N 36°33' W 001°05'1213.4
2016-Apr-27 10:31N 36°35' W 000°50'4513.8
2016-Apr-27 07:17N 36°41' E 000°05'1013.2
2016-Apr-27 06:32N 36°43' E 000°18'1313.6
2016-Apr-27 05:33N 36°45' E 000°34'1913.4
2016-Apr-27 04:07N 36°48' E 000°58'2313.2
2016-Apr-27 02:23N 36°51' E 001°26'1113.3
2016-Apr-27 01:33N 36°53' E 001°39'1413.8
2016-Apr-27 00:33N 36°55' E 001°56'1414.1
2016-Apr-26 23:33N 36°56' E 002°14'1414.1
2016-Apr-26 22:33N 36°58' E 002°32'1413.9
2016-Apr-26 21:30N 36°59' E 002°50'1313.6
2016-Apr-26 20:33N 37°02' E 003°06'1313.1
2016-Apr-26 19:33N 37°03' E 003°22'2713.5
2016-Apr-26 17:33N 37°06' E 003°56'  
2016-Apr-19 14:33N 35°59' W 005°12'1414.2
2016-Apr-19 13:34N 35°56' W 005°29'  
Track history (hours):
 
Tides and Currents Weather Stations Pressure Air Temp Water Temp Dewpoint Dewpoint Depression Visibility Wind Speed Wind Dir Waves Ship Positions

Filia Joy

Last reported at 2016-Apr-29 06:32 UTC. Time now 2016-Apr-29 23:34 UTC.
Position N 39°09' W 009°51'.

Length 190 m; draft 6.4 m.

Type: Cargo ship. MMSI: 371999000.

Date/timePositionNaut miles runAvg speedWind from/ knotsBaromVisibWave heightAir tempDewpointWater temp
2016-Apr-29 06:32N 39°09' W 009°51'1313.0
2016-Apr-29 05:33N 38°57' W 009°51'1413.1
2016-Apr-29 04:31N 38°43' W 009°51'1313.0
2016-Apr-29 03:33N 38°31' W 009°48'1313.1
2016-Apr-29 02:33N 38°18' W 009°45'1313.0
2016-Apr-29 01:33N 38°05' W 009°41'1312.9
2016-Apr-29 00:33N 37°53' W 009°37'1312.7
2016-Apr-28 23:33N 37°40' W 009°33'21911.5
2016-Apr-28 04:33N 35°59' W 005°30'1010.4
2016-Apr-28 03:33N 36°01' W 005°17'19612.8
2016-Apr-27 12:13N 36°32' W 001°18'1113.2
2016-Apr-27 11:24N 36°33' W 001°05'1213.4
2016-Apr-27 10:31N 36°35' W 000°50'4513.8
2016-Apr-27 07:17N 36°41' E 000°05'1013.2
2016-Apr-27 06:32N 36°43' E 000°18'1313.6
2016-Apr-27 05:33N 36°45' E 000°34'1913.4
2016-Apr-27 04:07N 36°48' E 000°58'2313.2
2016-Apr-27 02:23N 36°51' E 001°26'1113.3
2016-Apr-27 01:33N 36°53' E 001°39'1413.8
2016-Apr-27 00:33N 36°55' E 001°56'1414.1
2016-Apr-26 23:33N 36°56' E 002°14'1414.1
2016-Apr-26 22:33N 36°58' E 002°32'1413.9
2016-Apr-26 21:30N 36°59' E 002°50'1313.6
2016-Apr-26 20:33N 37°02' E 003°06'1313.1
2016-Apr-26 19:33N 37°03' E 003°22'2713.5
2016-Apr-26 17:33N 37°06' E 003°56'  
2016-Apr-19 14:33N 35°59' W 005°12'1414.2
2016-Apr-19 13:34N 35°56' W 005°29'  

Dump ship's entire track history